sensor_id;sensor_type;location;lat;lon;timestamp;pressure;altitude;pressure_sealevel;temperature;humidity
38616;BME280;24370;51.986;4.666;2024-01-25T00:01:57;102887.50;;;16.91;43.76
38616;BME280;24370;51.986;4.666;2024-01-25T00:04:22;102884.16;;;16.13;44.87
38616;BME280;24370;51.986;4.666;2024-01-25T00:06:48;102878.00;;;16.05;45.49
38616;BME280;24370;51.986;4.666;2024-01-25T00:09:13;102874.47;;;16.18;44.59
38616;BME280;24370;51.986;4.666;2024-01-25T00:11:38;102882.28;;;15.33;46.78
38616;BME280;24370;51.986;4.666;2024-01-25T00:14:04;102881.41;;;16.67;44.45
38616;BME280;24370;51.986;4.666;2024-01-25T00:16:29;102882.25;;;16.78;43.94
38616;BME280;24370;51.986;4.666;2024-01-25T00:18:55;102872.69;;;15.74;45.81
38616;BME280;24370;51.986;4.666;2024-01-25T00:21:20;102876.16;;;16.53;44.20
38616;BME280;24370;51.986;4.666;2024-01-25T00:23:46;102880.63;;;16.28;44.60
38616;BME280;24370;51.986;4.666;2024-01-25T00:26:12;102868.28;;;16.33;43.99
38616;BME280;24370;51.986;4.666;2024-01-25T00:28:37;102877.91;;;16.59;44.01
38616;BME280;24370;51.986;4.666;2024-01-25T00:31:03;102879.75;;;15.86;45.64
38616;BME280;24370;51.986;4.666;2024-01-25T00:33:31;102871.84;;;16.10;45.50
38616;BME280;24370;51.986;4.666;2024-01-25T00:35:57;102877.06;;;16.38;44.18
38616;BME280;24370;51.986;4.666;2024-01-25T00:38:22;102878.84;;;15.62;46.04
38616;BME280;24370;51.986;4.666;2024-01-25T00:40:48;102880.59;;;16.53;44.05
38616;BME280;24370;51.986;4.666;2024-01-25T00:43:14;102870.06;;;15.88;45.46
38616;BME280;24370;51.986;4.666;2024-01-25T00:45:39;102872.59;;;16.71;43.42
38616;BME280;24370;51.986;4.666;2024-01-25T00:48:05;102876.22;;;15.98;45.03
38616;BME280;24370;51.986;4.666;2024-01-25T00:50:31;102880.53;;;16.68;43.96
38616;BME280;24370;51.986;4.666;2024-01-25T00:52:57;102877.03;;;15.33;46.37
38616;BME280;24370;51.986;4.666;2024-01-25T00:55:22;102875.31;;;15.69;45.71
38616;BME280;24370;51.986;4.666;2024-01-25T00:57:48;102883.25;;;16.40;44.54
38616;BME280;24370;51.986;4.666;2024-01-25T01:00:14;102878.88;;;15.84;45.16
38616;BME280;24370;51.986;4.666;2024-01-25T01:02:42;102887.69;;;15.86;45.47
38616;BME280;24370;51.986;4.666;2024-01-25T01:05:08;102885.03;;;16.00;44.96
38616;BME280;24370;51.986;4.666;2024-01-25T01:07:34;102899.03;;;15.63;46.54
38616;BME280;24370;51.986;4.666;2024-01-25T01:09:59;102901.66;;;16.59;44.04
38616;BME280;24370;51.986;4.666;2024-01-25T01:12:25;102902.50;;;16.90;43.31
38616;BME280;24370;51.986;4.666;2024-01-25T01:14:50;102899.97;;;16.24;43.93
38616;BME280;24370;51.986;4.666;2024-01-25T01:17:16;102906.91;;;16.77;43.30
38616;BME280;24370;51.986;4.666;2024-01-25T01:19:43;102921.91;;;15.76;45.35
38616;BME280;24370;51.986;4.666;2024-01-25T01:22:08;102931.59;;;16.52;43.40
38616;BME280;24370;51.986;4.666;2024-01-25T01:24:34;102921.09;;;16.27;44.17
38616;BME280;24370;51.986;4.666;2024-01-25T01:26:59;102926.34;;;16.18;44.59
38616;BME280;24370;51.986;4.666;2024-01-25T01:29:25;102927.19;;;16.52;43.30
38616;BME280;24370;51.986;4.666;2024-01-25T01:31:50;102935.16;;;16.26;43.93
38616;BME280;24370;51.986;4.666;2024-01-25T01:34:15;102932.53;;;16.32;43.69
38616;BME280;24370;51.986;4.666;2024-01-25T01:36:43;102932.47;;;16.63;43.17
38616;BME280;24370;51.986;4.666;2024-01-25T01:39:09;102930.75;;;16.28;44.06
38616;BME280;24370;51.986;4.666;2024-01-25T01:41:34;102939.53;;;16.05;44.04
38616;BME280;24370;51.986;4.666;2024-01-25T01:44:00;102932.38;;;17.08;42.14
38616;BME280;24370;51.986;4.666;2024-01-25T01:46:34;102950.09;;;16.02;44.31
38616;BME280;24370;51.986;4.666;2024-01-25T01:49:00;102940.06;;;14.93;46.61
38616;BME280;24370;51.986;4.666;2024-01-25T01:51:26;102931.59;;;16.64;42.99
38616;BME280;24370;51.986;4.666;2024-01-25T01:53:52;102950.91;;;16.94;42.50
38616;BME280;24370;51.986;4.666;2024-01-25T01:56:19;102956.13;;;15.46;45.44
38616;BME280;24370;51.986;4.666;2024-01-25T01:58:45;102939.47;;;15.70;44.86
38616;BME280;24370;51.986;4.666;2024-01-25T02:01:12;102941.03;;;15.06;46.59
38616;BME280;24370;51.986;4.666;2024-01-25T02:03:38;102957.78;;;15.28;45.65
38616;BME280;24370;51.986;4.666;2024-01-25T02:06:03;102948.34;;;15.98;44.33
38616;BME280;24370;51.986;4.666;2024-01-25T02:08:29;102940.38;;;15.73;45.00
38616;BME280;24370;51.986;4.666;2024-01-25T02:10:55;102942.09;;;15.71;45.28
38616;BME280;24370;51.986;4.666;2024-01-25T02:13:21;102947.31;;;15.47;45.78
38616;BME280;24370;51.986;4.666;2024-01-25T02:15:46;102945.50;;;15.30;45.68
38616;BME280;24370;51.986;4.666;2024-01-25T02:18:12;102954.50;;;16.34;44.03
38616;BME280;24370;51.986;4.666;2024-01-25T02:20:37;102948.34;;;16.37;43.74
38616;BME280;24370;51.986;4.666;2024-01-25T02:23:03;102959.75;;;16.62;43.06
38616;BME280;24370;51.986;4.666;2024-01-25T02:25:31;102962.34;;;16.74;42.50
38616;BME280;24370;51.986;4.666;2024-01-25T02:27:57;102956.19;;;16.97;41.79
38616;BME280;24370;51.986;4.666;2024-01-25T02:30:22;102959.63;;;15.51;44.64
38616;BME280;24370;51.986;4.666;2024-01-25T02:32:47;102955.91;;;14.96;46.55
38616;BME280;24370;51.986;4.666;2024-01-25T02:35:13;102956.13;;;15.52;45.23
38616;BME280;24370;51.986;4.666;2024-01-25T02:37:38;102957.91;;;15.71;44.98
38616;BME280;24370;51.986;4.666;2024-01-25T02:40:04;102961.50;;;15.83;44.48
38616;BME280;24370;51.986;4.666;2024-01-25T02:42:29;102956.28;;;16.32;43.66
38616;BME280;24370;51.986;4.666;2024-01-25T02:44:55;102950.09;;;16.36;43.35
38616;BME280;24370;51.986;4.666;2024-01-25T02:47:20;102956.22;;;15.90;44.43
38616;BME280;24370;51.986;4.666;2024-01-25T02:49:46;102950.72;;;15.15;45.78
38616;BME280;24370;51.986;4.666;2024-01-25T02:52:11;102969.31;;;15.66;45.27
38616;BME280;24370;51.986;4.666;2024-01-25T02:54:36;102975.50;;;15.75;44.32
38616;BME280;24370;51.986;4.666;2024-01-25T02:57:02;102979.09;;;16.05;44.28
38616;BME280;24370;51.986;4.666;2024-01-25T02:59:31;102983.53;;;16.03;43.73
38616;BME280;24370;51.986;4.666;2024-01-25T03:01:57;102973.84;;;16.55;42.35
38616;BME280;24370;51.986;4.666;2024-01-25T03:04:22;102979.13;;;16.55;41.99
38616;BME280;24370;51.986;4.666;2024-01-25T03:06:48;102989.63;;;16.95;41.27
38616;BME280;24370;51.986;4.666;2024-01-25T03:09:14;102982.66;;;16.44;42.09
38616;BME280;24370;51.986;4.666;2024-01-25T03:11:39;102978.94;;;15.43;44.25
38616;BME280;24370;51.986;4.666;2024-01-25T03:14:04;102962.41;;;16.03;42.96
38616;BME280;24370;51.986;4.666;2024-01-25T03:16:30;102973.84;;;16.42;41.52
38616;BME280;24370;51.986;4.666;2024-01-25T03:18:55;102972.06;;;16.54;42.40
38616;BME280;24370;51.986;4.666;2024-01-25T03:21:21;102974.75;;;16.20;42.25
38616;BME280;24370;51.986;4.666;2024-01-25T03:23:46;102960.25;;;14.96;44.87
38616;BME280;24370;51.986;4.666;2024-01-25T03:26:12;102963.13;;;15.37;44.41
38616;BME280;24370;51.986;4.666;2024-01-25T03:28:37;102970.13;;;15.35;45.05
38616;BME280;24370;51.986;4.666;2024-01-25T03:31:04;102959.72;;;15.78;43.38
38616;BME280;24370;51.986;4.666;2024-01-25T03:33:30;102962.25;;;15.46;44.35
38616;BME280;24370;51.986;4.666;2024-01-25T03:36:03;102961.34;;;15.42;44.53
38616;BME280;24370;51.986;4.666;2024-01-25T03:38:29;102962.22;;;15.40;44.25
38616;BME280;24370;51.986;4.666;2024-01-25T03:40:55;102963.03;;;15.22;44.64
38616;BME280;24370;51.986;4.666;2024-01-25T03:43:22;102956.13;;;15.46;44.47
38616;BME280;24370;51.986;4.666;2024-01-25T03:45:49;102961.50;;;15.92;43.52
38616;BME280;24370;51.986;4.666;2024-01-25T03:48:14;102958.03;;;15.99;42.75
38616;BME280;24370;51.986;4.666;2024-01-25T03:50:40;102963.28;;;15.93;42.87
38616;BME280;24370;51.986;4.666;2024-01-25T03:53:05;102959.78;;;16.03;42.27
38616;BME280;24370;51.986;4.666;2024-01-25T03:55:31;102956.97;;;15.44;43.32
38616;BME280;24370;51.986;4.666;2024-01-25T03:57:57;102960.47;;;15.42;43.78
38616;BME280;24370;51.986;4.666;2024-01-25T04:00:22;102969.28;;;15.49;43.63
38616;BME280;24370;51.986;4.666;2024-01-25T04:02:48;102967.47;;;15.37;43.61
38616;BME280;24370;51.986;4.666;2024-01-25T04:05:13;102976.38;;;15.71;42.55
38616;BME280;24370;51.986;4.666;2024-01-25T04:07:39;102977.25;;;15.58;42.51
38616;BME280;24370;51.986;4.666;2024-01-25T04:10:05;102976.38;;;15.64;42.95
38616;BME280;24370;51.986;4.666;2024-01-25T04:12:31;102979.91;;;15.70;42.58
38616;BME280;24370;51.986;4.666;2024-01-25T04:14:57;102972.78;;;15.44;42.77
38616;BME280;24370;51.986;4.666;2024-01-25T04:17:23;102968.34;;;15.30;42.64
38616;BME280;24370;51.986;4.666;2024-01-25T04:19:48;102959.41;;;14.93;43.81
38616;BME280;24370;51.986;4.666;2024-01-25T04:22:14;102968.28;;;15.22;43.46
38616;BME280;24370;51.986;4.666;2024-01-25T04:24:39;102966.63;;;15.42;43.39
38616;BME280;24370;51.986;4.666;2024-01-25T04:27:05;102968.28;;;15.22;43.42
38616;BME280;24370;51.986;4.666;2024-01-25T04:29:31;102971.81;;;15.21;43.09
38616;BME280;24370;51.986;4.666;2024-01-25T04:31:56;102966.44;;;15.04;43.95
38616;BME280;24370;51.986;4.666;2024-01-25T04:34:22;102961.13;;;14.90;44.54
38616;BME280;24370;51.986;4.666;2024-01-25T04:36:47;102960.97;;;14.65;45.44
38616;BME280;24370;51.986;4.666;2024-01-25T04:39:12;102964.88;;;15.41;43.33
38616;BME280;24370;51.986;4.666;2024-01-25T04:41:38;102968.22;;;15.02;44.73
38616;BME280;24370;51.986;4.666;2024-01-25T04:44:03;102964.59;;;14.83;44.71
38616;BME280;24370;51.986;4.666;2024-01-25T04:46:29;102957.53;;;14.75;44.51
38616;BME280;24370;51.986;4.666;2024-01-25T04:49:00;102957.38;;;14.60;45.04
38616;BME280;24370;51.986;4.666;2024-01-25T04:51:25;102948.88;;;14.95;44.63
38616;BME280;24370;51.986;4.666;2024-01-25T04:53:51;102956.44;;;14.52;46.17
38616;BME280;24370;51.986;4.666;2024-01-25T04:56:16;102964.63;;;14.89;45.46
38616;BME280;24370;51.986;4.666;2024-01-25T04:58:41;102965.34;;;14.65;45.58
38616;BME280;24370;51.986;4.666;2024-01-25T05:01:07;102973.44;;;14.94;44.68
38616;BME280;24370;51.986;4.666;2024-01-25T05:03:33;102967.28;;;14.93;44.87
38616;BME280;24370;51.986;4.666;2024-01-25T05:05:58;102975.38;;;15.38;43.33
38616;BME280;24370;51.986;4.666;2024-01-25T05:08:24;102976.25;;;15.33;43.44
38616;BME280;24370;51.986;4.666;2024-01-25T05:10:49;102988.44;;;15.10;43.73
38616;BME280;24370;51.986;4.666;2024-01-25T05:13:15;102994.53;;;15.00;44.43
38616;BME280;24370;51.986;4.666;2024-01-25T05:15:40;102997.88;;;14.74;44.74
38616;BME280;24370;51.986;4.666;2024-01-25T05:18:06;103000.66;;;14.96;44.34
38616;BME280;24370;51.986;4.666;2024-01-25T05:20:32;102999.84;;;15.09;43.46
38616;BME280;24370;51.986;4.666;2024-01-25T05:23:01;103001.47;;;14.86;43.96
38616;BME280;24370;51.986;4.666;2024-01-25T05:25:27;103006.56;;;14.64;44.24
38616;BME280;24370;51.986;4.666;2024-01-25T05:27:53;103013.97;;;14.10;45.34
38616;BME280;24370;51.986;4.666;2024-01-25T05:30:19;103022.66;;;14.03;46.08
38616;BME280;24370;51.986;4.666;2024-01-25T05:32:44;103012.31;;;14.21;45.31
38616;BME280;24370;51.986;4.666;2024-01-25T05:35:11;103022.19;;;14.46;45.11
38616;BME280;24370;51.986;4.666;2024-01-25T05:37:36;103012.38;;;14.28;44.66
38616;BME280;24370;51.986;4.666;2024-01-25T05:40:01;103018.38;;;14.13;45.20
38616;BME280;24370;51.986;4.666;2024-01-25T05:42:27;103001.53;;;13.95;45.33
38616;BME280;24370;51.986;4.666;2024-01-25T05:44:52;102998.94;;;14.00;45.51
38616;BME280;24370;51.986;4.666;2024-01-25T05:47:18;102999.03;;;14.07;45.94
38616;BME280;24370;51.986;4.666;2024-01-25T05:49:43;103002.75;;;14.28;44.77
38616;BME280;24370;51.986;4.666;2024-01-25T05:52:09;102994.00;;;14.32;44.31
38616;BME280;24370;51.986;4.666;2024-01-25T05:54:34;102983.41;;;14.23;44.12
38616;BME280;24370;51.986;4.666;2024-01-25T05:57:00;102982.44;;;14.15;44.35
38616;BME280;24370;51.986;4.666;2024-01-25T05:59:25;102989.63;;;14.33;44.10
38616;BME280;24370;51.986;4.666;2024-01-25T06:01:50;102993.84;;;14.14;44.20
38616;BME280;24370;51.986;4.666;2024-01-25T06:04:16;102992.94;;;14.10;44.81
38616;BME280;24370;51.986;4.666;2024-01-25T06:06:41;102998.59;;;14.55;43.50
38616;BME280;24370;51.986;4.666;2024-01-25T06:09:07;103001.19;;;14.53;43.87
38616;BME280;24370;51.986;4.666;2024-01-25T06:11:32;103007.06;;;14.24;43.69
38616;BME280;24370;51.986;4.666;2024-01-25T06:14:00;103009.47;;;14.00;44.23
38616;BME280;24370;51.986;4.666;2024-01-25T06:16:25;103014.09;;;14.21;43.36
38616;BME280;24370;51.986;4.666;2024-01-25T06:18:51;103015.53;;;13.91;44.27
38616;BME280;24370;51.986;4.666;2024-01-25T06:21:16;103016.56;;;14.05;44.01
38616;BME280;24370;51.986;4.666;2024-01-25T06:23:41;103019.22;;;14.08;44.11
38616;BME280;24370;51.986;4.666;2024-01-25T06:26:07;103009.56;;;14.07;44.04
38616;BME280;24370;51.986;4.666;2024-01-25T06:28:32;103011.22;;;13.99;44.00
38616;BME280;24370;51.986;4.666;2024-01-25T06:31:00;103013.94;;;14.07;43.59
38616;BME280;24370;51.986;4.666;2024-01-25T06:33:26;103003.53;;;14.18;43.54
38616;BME280;24370;51.986;4.666;2024-01-25T06:35:51;102995.59;;;14.15;43.38
38616;BME280;24370;51.986;4.666;2024-01-25T06:38:16;103008.81;;;14.18;43.47
38616;BME280;24370;51.986;4.666;2024-01-25T06:40:42;103008.44;;;13.84;45.08
38616;BME280;24370;51.986;4.666;2024-01-25T06:43:07;103008.50;;;13.90;44.36
38616;BME280;24370;51.986;4.666;2024-01-25T06:45:32;103012.00;;;13.89;43.63
38616;BME280;24370;51.986;4.666;2024-01-25T06:47:58;103013.63;;;13.78;44.76
38616;BME280;24370;51.986;4.666;2024-01-25T06:50:23;102997.19;;;13.97;44.47
38616;BME280;24370;51.986;4.666;2024-01-25T06:52:48;103001.81;;;14.23;44.40
38616;BME280;24370;51.986;4.666;2024-01-25T06:55:14;103002.47;;;14.00;44.17
38616;BME280;24370;51.986;4.666;2024-01-25T06:57:40;102997.16;;;13.94;44.54
38616;BME280;24370;51.986;4.666;2024-01-25T07:00:06;102995.09;;;13.65;45.93
38616;BME280;24370;51.986;4.666;2024-01-25T07:02:31;102990.16;;;13.96;45.03
38616;BME280;24370;51.986;4.666;2024-01-25T07:04:57;103000.75;;;14.04;44.83
38616;BME280;24370;51.986;4.666;2024-01-25T07:07:22;103022.44;;;13.83;44.61
38616;BME280;24370;51.986;4.666;2024-01-25T07:09:47;103019.34;;;13.43;45.66
38616;BME280;24370;51.986;4.666;2024-01-25T07:12:13;103025.94;;;13.83;45.32
38616;BME280;24370;51.986;4.666;2024-01-25T07:14:38;103006.13;;;14.15;43.84
38616;BME280;24370;51.986;4.666;2024-01-25T07:17:03;103014.59;;;13.86;44.99
38616;BME280;24370;51.986;4.666;2024-01-25T07:19:29;103007.03;;;14.17;44.43
38616;BME280;24370;51.986;4.666;2024-01-25T07:21:54;103013.28;;;14.31;43.77
38616;BME280;24370;51.986;4.666;2024-01-25T07:24:20;103019.59;;;14.49;43.50
38616;BME280;24370;51.986;4.666;2024-01-25T07:26:49;103023.88;;;14.37;44.08
38616;BME280;24370;51.986;4.666;2024-01-25T07:29:14;103013.34;;;14.34;43.99
38616;BME280;24370;51.986;4.666;2024-01-25T07:31:39;103028.22;;;14.35;44.07
38616;BME280;24370;51.986;4.666;2024-01-25T07:34:05;103028.91;;;14.13;44.91
38616;BME280;24370;51.986;4.666;2024-01-25T07:36:30;103029.00;;;14.22;44.74
38616;BME280;24370;51.986;4.666;2024-01-25T07:38:56;103034.03;;;13.99;45.36
38616;BME280;24370;51.986;4.666;2024-01-25T07:41:22;103023.22;;;13.72;46.06
38616;BME280;24370;51.986;4.666;2024-01-25T07:43:47;103022.28;;;13.69;46.36
38616;BME280;24370;51.986;4.666;2024-01-25T07:46:13;103010.59;;;13.44;46.85
38616;BME280;24370;51.986;4.666;2024-01-25T07:48:40;103020.72;;;13.85;45.45
38616;BME280;24370;51.986;4.666;2024-01-25T07:51:11;103024.72;;;13.52;46.62
38616;BME280;24370;51.986;4.666;2024-01-25T07:53:37;103030.69;;;13.38;46.66
38616;BME280;24370;51.986;4.666;2024-01-25T07:56:03;103033.63;;;13.66;46.15
38616;BME280;24370;51.986;4.666;2024-01-25T07:58:31;103028.09;;;13.45;46.75
38616;BME280;24370;51.986;4.666;2024-01-25T08:00:56;103023.38;;;13.85;45.90
38616;BME280;24370;51.986;4.666;2024-01-25T08:03:22;103013.84;;;13.98;45.98
38616;BME280;24370;51.986;4.666;2024-01-25T08:05:47;102987.91;;;14.39;44.51
38616;BME280;24370;51.986;4.666;2024-01-25T08:08:12;102997.19;;;13.97;46.07
38616;BME280;24370;51.986;4.666;2024-01-25T08:10:38;103006.22;;;14.24;45.44
38616;BME280;24370;51.986;4.666;2024-01-25T08:13:03;103008.97;;;14.38;45.46
38616;BME280;24370;51.986;4.666;2024-01-25T08:15:32;103010.09;;;14.63;44.50
38616;BME280;24370;51.986;4.666;2024-01-25T08:17:57;103002.47;;;14.00;46.23
38616;BME280;24370;51.986;4.666;2024-01-25T08:20:23;102987.16;;;14.50;45.39
38616;BME280;24370;51.986;4.666;2024-01-25T08:22:48;103017.69;;;13.51;48.07
38616;BME280;24370;51.986;4.666;2024-01-25T08:25:13;103008.16;;;13.59;48.00
38616;BME280;24370;51.986;4.666;2024-01-25T08:27:41;103017.81;;;13.60;48.07
38616;BME280;24370;51.986;4.666;2024-01-25T08:30:07;103016.16;;;14.59;46.20
38616;BME280;24370;51.986;4.666;2024-01-25T08:32:32;103024.22;;;14.74;45.63
38616;BME280;24370;51.986;4.666;2024-01-25T08:34:57;103018.97;;;14.81;45.75
38616;BME280;24370;51.986;4.666;2024-01-25T08:37:23;103018.81;;;14.62;45.90
38616;BME280;24370;51.986;4.666;2024-01-25T08:39:48;103013.06;;;15.22;44.85
38616;BME280;24370;51.986;4.666;2024-01-25T08:42:16;103011.13;;;14.88;45.53
38616;BME280;24370;51.986;4.666;2024-01-25T08:44:42;103008.72;;;15.30;44.92
38616;BME280;24370;51.986;4.666;2024-01-25T08:47:14;103027.16;;;15.22;45.06
38616;BME280;24370;51.986;4.666;2024-01-25T08:49:40;103020.75;;;14.82;46.21
38616;BME280;24370;51.986;4.666;2024-01-25T08:52:06;103016.31;;;14.78;45.83
38616;BME280;24370;51.986;4.666;2024-01-25T08:54:32;103035.44;;;14.55;46.82
38616;BME280;24370;51.986;4.666;2024-01-25T08:56:57;103024.38;;;14.99;45.49
38616;BME280;24370;51.986;4.666;2024-01-25T08:59:23;103019.03;;;14.87;46.51
38616;BME280;24370;51.986;4.666;2024-01-25T09:01:48;103000.75;;;15.16;46.09
38616;BME280;24370;51.986;4.666;2024-01-25T09:04:13;103010.72;;;14.37;47.47
38616;BME280;24370;51.986;4.666;2024-01-25T09:06:39;103008.41;;;14.71;47.49
38616;BME280;24370;51.986;4.666;2024-01-25T09:09:04;103008.34;;;14.68;47.58
38616;BME280;24370;51.986;4.666;2024-01-25T09:11:30;103002.53;;;15.19;46.46
38616;BME280;24370;51.986;4.666;2024-01-25T09:13:56;103002.25;;;14.74;47.49
38616;BME280;24370;51.986;4.666;2024-01-25T09:16:22;102999.94;;;15.28;46.52
38616;BME280;24370;51.986;4.666;2024-01-25T09:18:47;103000.75;;;15.16;46.97
38616;BME280;24370;51.986;4.666;2024-01-25T09:21:13;102996.94;;;14.65;47.53
38616;BME280;24370;51.986;4.666;2024-01-25T09:23:39;102991.47;;;14.41;48.75
38616;BME280;24370;51.986;4.666;2024-01-25T09:26:05;102997.38;;;15.39;46.68
38616;BME280;24370;51.986;4.666;2024-01-25T09:28:30;102996.34;;;15.10;47.14
38616;BME280;24370;51.986;4.666;2024-01-25T09:30:55;102996.97;;;14.74;47.95
38616;BME280;24370;51.986;4.666;2024-01-25T09:33:21;103003.84;;;14.55;47.74
38616;BME280;24370;51.986;4.666;2024-01-25T09:35:46;103001.88;;;14.28;48.29
38616;BME280;24370;51.986;4.666;2024-01-25T09:38:13;103004.44;;;14.23;49.58
38616;BME280;24370;51.986;4.666;2024-01-25T09:40:39;103002.81;;;14.37;48.49
38616;BME280;24370;51.986;4.666;2024-01-25T09:43:04;103003.94;;;13.73;50.06
38616;BME280;24370;51.986;4.666;2024-01-25T09:45:31;102994.22;;;14.62;48.58
38616;BME280;24370;51.986;4.666;2024-01-25T09:47:56;103002.78;;;14.33;49.08
38616;BME280;24370;51.986;4.666;2024-01-25T09:50:22;102995.56;;;15.32;47.22
38616;BME280;24370;51.986;4.666;2024-01-25T09:52:53;102994.63;;;15.16;47.99
38616;BME280;24370;51.986;4.666;2024-01-25T09:55:24;102995.72;;;15.72;47.31
38616;BME280;24370;51.986;4.666;2024-01-25T09:57:53;102983.38;;;15.63;46.71
38616;BME280;24370;51.986;4.666;2024-01-25T10:00:19;102973.50;;;15.06;47.87
38616;BME280;24370;51.986;4.666;2024-01-25T10:02:47;102979.72;;;15.24;47.87
38616;BME280;24370;51.986;4.666;2024-01-25T10:05:14;102972.03;;;15.80;47.29
38616;BME280;24370;51.986;4.666;2024-01-25T10:07:44;102985.91;;;15.32;48.40
38616;BME280;24370;51.986;4.666;2024-01-25T10:10:11;102985.91;;;15.34;48.00
38616;BME280;24370;51.986;4.666;2024-01-25T10:12:38;102993.19;;;16.01;46.87
38616;BME280;24370;51.986;4.666;2024-01-25T10:15:04;102986.16;;;16.50;45.36
38616;BME280;24370;51.986;4.666;2024-01-25T10:17:30;102989.63;;;15.81;47.32
38616;BME280;24370;51.986;4.666;2024-01-25T10:19:56;102994.94;;;16.02;46.79
38616;BME280;24370;51.986;4.666;2024-01-25T10:22:22;102998.47;;;16.35;46.68
38616;BME280;24370;51.986;4.666;2024-01-25T10:24:48;102984.41;;;16.42;45.95
38616;BME280;24370;51.986;4.666;2024-01-25T10:27:16;102980.88;;;16.59;45.81
38616;BME280;24370;51.986;4.666;2024-01-25T10:29:41;102971.22;;;16.39;45.99
38616;BME280;24370;51.986;4.666;2024-01-25T10:32:08;102975.59;;;16.68;45.49
38616;BME280;24370;51.986;4.666;2024-01-25T10:34:38;102983.53;;;16.22;46.25
38616;BME280;24370;51.986;4.666;2024-01-25T10:37:06;102982.59;;;16.75;45.75
38616;BME280;24370;51.986;4.666;2024-01-25T10:39:32;102984.41;;;16.11;47.43
38616;BME280;24370;51.986;4.666;2024-01-25T10:41:59;103000.09;;;15.68;48.06
38616;BME280;24370;51.986;4.666;2024-01-25T10:44:25;102996.56;;;15.57;48.36
38616;BME280;24370;51.986;4.666;2024-01-25T10:46:50;102987.88;;;15.86;47.83
38616;BME280;24370;51.986;4.666;2024-01-25T10:49:17;102986.03;;;15.77;47.78
38616;BME280;24370;51.986;4.666;2024-01-25T10:51:44;102980.91;;;16.16;47.85
38616;BME280;24370;51.986;4.666;2024-01-25T10:54:12;102964.06;;;17.02;45.52
38616;BME280;24370;51.986;4.666;2024-01-25T10:56:42;102966.78;;;16.04;47.63
38616;BME280;24370;51.986;4.666;2024-01-25T10:59:08;102963.19;;;15.73;48.67
38616;BME280;24370;51.986;4.666;2024-01-25T11:01:36;102956.22;;;15.86;47.35
38616;BME280;24370;51.986;4.666;2024-01-25T11:04:01;102946.56;;;16.45;47.05
38616;BME280;24370;51.986;4.666;2024-01-25T11:06:27;102937.66;;;17.06;45.57
38616;BME280;24370;51.986;4.666;2024-01-25T11:09:07;102935.94;;;16.84;45.93
38616;BME280;24370;51.986;4.666;2024-01-25T11:11:32;102938.59;;;16.71;46.32
38616;BME280;24370;51.986;4.666;2024-01-25T11:14:01;102945.63;;;16.83;46.01
38616;BME280;24370;51.986;4.666;2024-01-25T11:16:31;102945.66;;;15.80;48.61
38616;BME280;24370;51.986;4.666;2024-01-25T11:18:58;102936.03;;;16.17;47.56
38616;BME280;24370;51.986;4.666;2024-01-25T11:21:46;102933.38;;;16.47;47.03
38616;BME280;24370;51.986;4.666;2024-01-25T11:24:22;102922.75;;;15.63;49.36
38616;BME280;24370;51.986;4.666;2024-01-25T11:26:49;102928.09;;;16.11;48.31
38616;BME280;24370;51.986;4.666;2024-01-25T11:29:15;102926.34;;;16.33;47.57
38616;BME280;24370;51.986;4.666;2024-01-25T11:31:46;102921.88;;;16.66;47.24
38616;BME280;24370;51.986;4.666;2024-01-25T11:34:12;102929.84;;;16.38;47.78
38616;BME280;24370;51.986;4.666;2024-01-25T11:36:38;102932.41;;;16.86;46.56
38616;BME280;24370;51.986;4.666;2024-01-25T11:39:04;102915.69;;;16.86;46.93
38616;BME280;24370;51.986;4.666;2024-01-25T11:41:31;102896.34;;;16.71;47.06
38616;BME280;24370;51.986;4.666;2024-01-25T11:43:57;102893.81;;;16.20;48.15
38616;BME280;24370;51.986;4.666;2024-01-25T11:46:22;102894.63;;;16.58;47.80
38616;BME280;24370;51.986;4.666;2024-01-25T11:48:48;102877.94;;;16.37;48.13
38616;BME280;24370;51.986;4.666;2024-01-25T11:51:13;102876.91;;;17.00;46.34
38616;BME280;24370;51.986;4.666;2024-01-25T11:53:39;102854.88;;;17.03;47.22
38616;BME280;24370;51.986;4.666;2024-01-25T11:56:07;102858.47;;;16.85;47.15
38616;BME280;24370;51.986;4.666;2024-01-25T11:58:33;102843.06;;;17.64;45.46
38616;BME280;24370;51.986;4.666;2024-01-25T12:01:00;102851.81;;;17.72;45.36
38616;BME280;24370;51.986;4.666;2024-01-25T12:03:27;102849.97;;;17.80;45.34
38616;BME280;24370;51.986;4.666;2024-01-25T12:05:53;102859.25;;;17.15;47.12
38616;BME280;24370;51.986;4.666;2024-01-25T12:08:18;102850.88;;;17.79;45.45
38616;BME280;24370;51.986;4.666;2024-01-25T12:10:44;102848.09;;;16.20;48.19
38616;BME280;24370;51.986;4.666;2024-01-25T12:13:09;102841.88;;;16.45;48.62
38616;BME280;24370;51.986;4.666;2024-01-25T12:15:35;102830.91;;;17.38;46.58
38616;BME280;24370;51.986;4.666;2024-01-25T12:18:01;102822.72;;;17.69;46.06
38616;BME280;24370;51.986;4.666;2024-01-25T12:20:31;102825.66;;;17.29;46.95
38616;BME280;24370;51.986;4.666;2024-01-25T12:22:58;102815.97;;;17.31;46.62
38616;BME280;24370;51.986;4.666;2024-01-25T12:25:23;102822.16;;;17.30;46.43
38616;BME280;24370;51.986;4.666;2024-01-25T12:27:48;102818.41;;;17.60;45.83
38616;BME280;24370;51.986;4.666;2024-01-25T12:30:15;102803.19;;;17.86;45.36
38616;BME280;24370;51.986;4.666;2024-01-25T12:32:41;102804.34;;;17.54;45.66
38616;BME280;24370;51.986;4.666;2024-01-25T12:35:07;102802.84;;;17.16;46.87
38616;BME280;24370;51.986;4.666;2024-01-25T12:37:34;102787.56;;;17.59;45.68
38616;BME280;24370;51.986;4.666;2024-01-25T12:39:59;102775.94;;;17.77;45.31
38616;BME280;24370;51.986;4.666;2024-01-25T12:42:24;102775.63;;;18.11;44.79
38616;BME280;24370;51.986;4.666;2024-01-25T12:44:52;102772.16;;;16.96;47.66